sensor_id;sensor_type;location;lat;lon;timestamp;pressure;altitude;pressure_sealevel;temperature;humidity
44934;BME280;30667;43.614;1.442;2023-04-08T00:00:22;99982.50;;;11.80;100.00
44934;BME280;30667;43.614;1.442;2023-04-08T00:02:47;99974.31;;;11.85;99.51
44934;BME280;30667;43.614;1.442;2023-04-08T00:05:12;99980.25;;;11.92;100.00
44934;BME280;30667;43.614;1.442;2023-04-08T00:07:38;99979.22;;;11.83;100.00
44934;BME280;30667;43.614;1.442;2023-04-08T00:10:04;99985.00;;;11.76;99.80
44934;BME280;30667;43.614;1.442;2023-04-08T00:12:30;99990.88;;;11.84;100.00
44934;BME280;30667;43.614;1.442;2023-04-08T00:14:56;99993.34;;;11.80;100.00
44934;BME280;30667;43.614;1.442;2023-04-08T00:17:22;99985.00;;;11.76;100.00
44934;BME280;30667;43.614;1.442;2023-04-08T00:19:47;99986.47;;;11.63;100.00
44934;BME280;30667;43.614;1.442;2023-04-08T00:22:12;99974.91;;;11.53;100.00
44934;BME280;30667;43.614;1.442;2023-04-08T00:24:38;99982.19;;;11.57;100.00
44934;BME280;30667;43.614;1.442;2023-04-08T00:27:05;99975.63;;;11.63;100.00
44934;BME280;30667;43.614;1.442;2023-04-08T00:29:30;99979.69;;;11.61;100.00
44934;BME280;30667;43.614;1.442;2023-04-08T00:31:56;99977.22;;;11.64;100.00
44934;BME280;30667;43.614;1.442;2023-04-08T00:34:22;99984.69;;;11.49;100.00
44934;BME280;30667;43.614;1.442;2023-04-08T00:36:47;99986.34;;;11.44;100.00
44934;BME280;30667;43.614;1.442;2023-04-08T00:39:13;99982.84;;;11.44;100.00
44934;BME280;30667;43.614;1.442;2023-04-08T00:41:39;99984.38;;;11.55;100.00
44934;BME280;30667;43.614;1.442;2023-04-08T00:44:04;99985.97;;;11.56;100.00
44934;BME280;30667;43.614;1.442;2023-04-08T00:46:35;99982.75;;;11.54;100.00
44934;BME280;30667;43.614;1.442;2023-04-08T00:49:01;99975.41;;;11.55;100.00
44934;BME280;30667;43.614;1.442;2023-04-08T00:51:30;99984.22;;;11.41;100.00
44934;BME280;30667;43.614;1.442;2023-04-08T00:53:56;99995.06;;;11.41;100.00
44934;BME280;30667;43.614;1.442;2023-04-08T00:56:23;99994.72;;;11.48;100.00
44934;BME280;30667;43.614;1.442;2023-04-08T00:58:49;99994.81;;;11.38;100.00
44934;BME280;30667;43.614;1.442;2023-04-08T01:01:29;99991.81;;;11.39;100.00
44934;BME280;30667;43.614;1.442;2023-04-08T01:06:53;99992.47;;;11.26;100.00
44934;BME280;30667;43.614;1.442;2023-04-08T01:09:24;99993.00;;;11.28;100.00
44934;BME280;30667;43.614;1.442;2023-04-08T01:11:52;99993.00;;;11.28;100.00
44934;BME280;30667;43.614;1.442;2023-04-08T01:14:20;99990.19;;;11.38;100.00
44934;BME280;30667;43.614;1.442;2023-04-08T01:16:47;99989.19;;;11.29;100.00
44934;BME280;30667;43.614;1.442;2023-04-08T01:19:26;99986.00;;;11.22;100.00
44934;BME280;30667;43.614;1.442;2023-04-08T01:21:52;99979.75;;;11.21;100.00
44934;BME280;30667;43.614;1.442;2023-04-08T01:24:25;99978.16;;;11.20;100.00
44934;BME280;30667;43.614;1.442;2023-04-08T01:26:53;99981.72;;;11.16;100.00
44934;BME280;30667;43.614;1.442;2023-04-08T01:29:22;99979.81;;;11.16;100.00
44934;BME280;30667;43.614;1.442;2023-04-08T01:31:49;99979.81;;;11.16;100.00
44934;BME280;30667;43.614;1.442;2023-04-08T01:34:15;99983.56;;;11.20;100.00
44934;BME280;30667;43.614;1.442;2023-04-08T01:36:44;99980.88;;;11.20;100.00
44934;BME280;30667;43.614;1.442;2023-04-08T01:39:11;99981.72;;;11.16;100.00
44934;BME280;30667;43.614;1.442;2023-04-08T01:41:38;99975.78;;;11.14;100.00
44934;BME280;30667;43.614;1.442;2023-04-08T01:44:04;99987.44;;;11.09;100.00
44934;BME280;30667;43.614;1.442;2023-04-08T01:46:31;99981.47;;;11.12;100.00
44934;BME280;30667;43.614;1.442;2023-04-08T01:48:58;99989.31;;;11.14;100.00
44934;BME280;30667;43.614;1.442;2023-04-08T01:51:24;99990.44;;;11.02;100.00
44934;BME280;30667;43.614;1.442;2023-04-08T01:53:51;99991.88;;;10.95;100.00
44934;BME280;30667;43.614;1.442;2023-04-08T01:56:21;99991.88;;;10.89;100.00
44934;BME280;30667;43.614;1.442;2023-04-08T01:58:50;99987.91;;;10.82;100.00
44934;BME280;30667;43.614;1.442;2023-04-08T02:01:20;99987.63;;;10.83;100.00
44934;BME280;30667;43.614;1.442;2023-04-08T02:03:48;99977.91;;;10.72;100.00
44934;BME280;30667;43.614;1.442;2023-04-08T02:06:16;99983.66;;;10.65;100.00
44934;BME280;30667;43.614;1.442;2023-04-08T02:08:42;99981.78;;;10.61;100.00
44934;BME280;30667;43.614;1.442;2023-04-08T02:11:07;99986.66;;;10.59;100.00
44934;BME280;30667;43.614;1.442;2023-04-08T02:13:33;99983.91;;;10.64;100.00
44934;BME280;30667;43.614;1.442;2023-04-08T02:16:18;99995.00;;;10.67;100.00
44934;BME280;30667;43.614;1.442;2023-04-08T02:19:07;99992.91;;;10.54;100.00
44934;BME280;30667;43.614;1.442;2023-04-08T02:21:43;99991.25;;;10.63;100.00
44934;BME280;30667;43.614;1.442;2023-04-08T02:24:12;99997.53;;;10.48;100.00
44934;BME280;30667;43.614;1.442;2023-04-08T02:26:41;100002.38;;;10.57;100.00
44934;BME280;30667;43.614;1.442;2023-04-08T02:29:11;100002.91;;;10.53;100.00
44934;BME280;30667;43.614;1.442;2023-04-08T02:31:40;99995.91;;;10.47;100.00
44934;BME280;30667;43.614;1.442;2023-04-08T02:34:09;99998.88;;;10.51;100.00
44934;BME280;30667;43.614;1.442;2023-04-08T02:36:34;100002.13;;;10.48;100.00
44934;BME280;30667;43.614;1.442;2023-04-08T02:39:01;99999.69;;;10.46;100.00
44934;BME280;30667;43.614;1.442;2023-04-08T02:41:28;99995.69;;;10.28;100.00
44934;BME280;30667;43.614;1.442;2023-04-08T02:43:54;99998.97;;;10.15;100.00
44934;BME280;30667;43.614;1.442;2023-04-08T02:46:19;99997.34;;;10.19;100.00
44934;BME280;30667;43.614;1.442;2023-04-08T02:48:45;99990.88;;;10.15;100.00
44934;BME280;30667;43.614;1.442;2023-04-08T02:51:10;99989.50;;;10.17;100.00
44934;BME280;30667;43.614;1.442;2023-04-08T02:53:36;99991.69;;;10.10;100.00
44934;BME280;30667;43.614;1.442;2023-04-08T02:56:01;99985.19;;;10.11;100.00
44934;BME280;30667;43.614;1.442;2023-04-08T02:58:27;99989.50;;;10.12;100.00
44934;BME280;30667;43.614;1.442;2023-04-08T03:00:52;99982.47;;;10.11;100.00
44934;BME280;30667;43.614;1.442;2023-04-08T03:03:18;99989.00;;;10.10;100.00
44934;BME280;30667;43.614;1.442;2023-04-08T03:05:43;99988.44;;;10.08;100.00
44934;BME280;30667;43.614;1.442;2023-04-08T03:08:08;99989.00;;;10.10;100.00
44934;BME280;30667;43.614;1.442;2023-04-08T03:10:34;100003.31;;;10.11;100.00
44934;BME280;30667;43.614;1.442;2023-04-08T03:12:59;99999.25;;;10.08;100.00
44934;BME280;30667;43.614;1.442;2023-04-08T03:15:25;99997.66;;;10.02;100.00
44934;BME280;30667;43.614;1.442;2023-04-08T03:17:50;99995.78;;;9.92;100.00
44934;BME280;30667;43.614;1.442;2023-04-08T03:20:15;99993.34;;;9.86;100.00
44934;BME280;30667;43.614;1.442;2023-04-08T03:22:41;99991.47;;;9.81;100.00
44934;BME280;30667;43.614;1.442;2023-04-08T03:25:07;99995.28;;;9.75;100.00
44934;BME280;30667;43.614;1.442;2023-04-08T03:27:32;99992.31;;;9.71;100.00
44934;BME280;30667;43.614;1.442;2023-04-08T03:29:58;99993.69;;;9.69;100.00
44934;BME280;30667;43.614;1.442;2023-04-08T03:32:23;100003.38;;;9.64;100.00
44934;BME280;30667;43.614;1.442;2023-04-08T03:34:48;100003.94;;;9.56;100.00
44934;BME280;30667;43.614;1.442;2023-04-08T03:37:17;100002.03;;;9.57;100.00
44934;BME280;30667;43.614;1.442;2023-04-08T03:39:42;100010.16;;;9.52;100.00
44934;BME280;30667;43.614;1.442;2023-04-08T03:42:08;100001.78;;;9.48;100.00
44934;BME280;30667;43.614;1.442;2023-04-08T03:44:33;100005.28;;;9.49;100.00
44934;BME280;30667;43.614;1.442;2023-04-08T03:46:58;100002.59;;;9.49;100.00
44934;BME280;30667;43.614;1.442;2023-04-08T03:49:24;99996.94;;;9.40;100.00
44934;BME280;30667;43.614;1.442;2023-04-08T03:51:49;99994.75;;;9.42;100.00
44934;BME280;30667;43.614;1.442;2023-04-08T03:54:15;100002.88;;;9.42;100.00
44934;BME280;30667;43.614;1.442;2023-04-08T03:56:40;100003.69;;;9.32;100.00
44934;BME280;30667;43.614;1.442;2023-04-08T03:59:06;99998.28;;;9.27;100.00
44934;BME280;30667;43.614;1.442;2023-04-08T04:01:31;99998.28;;;9.27;100.00
44934;BME280;30667;43.614;1.442;2023-04-08T04:03:57;99990.69;;;9.39;100.00
44934;BME280;30667;43.614;1.442;2023-04-08T04:06:22;99992.88;;;9.32;100.00
44934;BME280;30667;43.614;1.442;2023-04-08T04:08:48;99995.28;;;9.23;100.00
44934;BME280;30667;43.614;1.442;2023-04-08T04:11:14;99990.72;;;9.24;100.00
44934;BME280;30667;43.614;1.442;2023-04-08T04:13:40;99998.78;;;9.14;100.00
44934;BME280;30667;43.614;1.442;2023-04-08T04:16:05;99990.13;;;9.01;100.00
44934;BME280;30667;43.614;1.442;2023-04-08T04:18:31;99992.03;;;9.01;100.00
44934;BME280;30667;43.614;1.442;2023-04-08T04:20:56;99998.75;;;8.98;100.00
44934;BME280;30667;43.614;1.442;2023-04-08T04:23:21;99987.97;;;8.98;100.00
44934;BME280;30667;43.614;1.442;2023-04-08T04:25:49;99991.19;;;8.85;100.00
44934;BME280;30667;43.614;1.442;2023-04-08T04:28:15;99994.72;;;8.90;100.00
44934;BME280;30667;43.614;1.442;2023-04-08T04:30:40;99996.59;;;8.85;100.00
44934;BME280;30667;43.614;1.442;2023-04-08T04:33:06;99996.03;;;8.78;100.00
44934;BME280;30667;43.614;1.442;2023-04-08T04:35:32;99996.03;;;8.78;100.00
44934;BME280;30667;43.614;1.442;2023-04-08T04:37:57;99993.34;;;8.83;100.00
44934;BME280;30667;43.614;1.442;2023-04-08T04:40:23;99996.06;;;8.83;100.00
44934;BME280;30667;43.614;1.442;2023-04-08T04:42:48;100006.84;;;8.98;100.00
44934;BME280;30667;43.614;1.442;2023-04-08T04:45:13;100007.38;;;8.90;100.00
44934;BME280;30667;43.614;1.442;2023-04-08T04:47:39;100001.69;;;8.76;100.00
44934;BME280;30667;43.614;1.442;2023-04-08T04:50:05;100007.09;;;8.76;100.00
44934;BME280;30667;43.614;1.442;2023-04-08T04:52:31;100015.19;;;8.81;100.00
44934;BME280;30667;43.614;1.442;2023-04-08T04:54:57;100006.53;;;8.74;100.00
44934;BME280;30667;43.614;1.442;2023-04-08T04:57:22;100014.38;;;8.76;100.00
44934;BME280;30667;43.614;1.442;2023-04-08T04:59:48;100011.38;;;8.67;100.00
44934;BME280;30667;43.614;1.442;2023-04-08T05:02:13;100012.69;;;8.59;100.00
44934;BME280;30667;43.614;1.442;2023-04-08T05:04:39;100016.78;;;8.67;100.00
44934;BME280;30667;43.614;1.442;2023-04-08T05:07:05;100015.41;;;8.64;100.00
44934;BME280;30667;43.614;1.442;2023-04-08T05:09:30;100021.94;;;8.79;100.00
44934;BME280;30667;43.614;1.442;2023-04-08T05:11:55;100024.09;;;8.77;100.00
44934;BME280;30667;43.614;1.442;2023-04-08T05:14:21;100033.28;;;8.86;100.00
44934;BME280;30667;43.614;1.442;2023-04-08T05:16:47;100034.91;;;8.87;100.00
44934;BME280;30667;43.614;1.442;2023-04-08T05:19:12;100034.56;;;8.68;100.00
44934;BME280;30667;43.614;1.442;2023-04-08T05:21:37;100032.09;;;8.56;100.00
44934;BME280;30667;43.614;1.442;2023-04-08T05:24:03;100033.13;;;8.45;100.00
44934;BME280;30667;43.614;1.442;2023-04-08T05:26:28;100041.25;;;8.50;100.00
44934;BME280;30667;43.614;1.442;2023-04-08T05:28:54;100043.16;;;8.54;100.00
44934;BME280;30667;43.614;1.442;2023-04-08T05:31:19;100043.94;;;8.50;100.00
44934;BME280;30667;43.614;1.442;2023-04-08T05:33:45;100056.59;;;8.44;100.00
44934;BME280;30667;43.614;1.442;2023-04-08T05:36:11;100054.72;;;8.45;100.00
44934;BME280;30667;43.614;1.442;2023-04-08T05:38:38;100061.50;;;8.52;100.00
44934;BME280;30667;43.614;1.442;2023-04-08T05:41:03;100058.50;;;8.49;100.00
44934;BME280;30667;43.614;1.442;2023-04-08T05:43:29;100069.31;;;8.49;100.00
44934;BME280;30667;43.614;1.442;2023-04-08T05:45:54;100070.44;;;8.63;100.00
44934;BME280;30667;43.614;1.442;2023-04-08T05:48:20;100072.09;;;8.75;100.00
44934;BME280;30667;43.614;1.442;2023-04-08T05:50:45;100073.94;;;8.59;100.00
44934;BME280;30667;43.614;1.442;2023-04-08T05:53:12;100082.84;;;8.64;100.00
44934;BME280;30667;43.614;1.442;2023-04-08T05:55:39;100079.34;;;8.69;100.00
44934;BME280;30667;43.614;1.442;2023-04-08T05:58:05;100089.00;;;8.54;100.00
44934;BME280;30667;43.614;1.442;2023-04-08T06:00:31;100088.19;;;8.54;100.00
44934;BME280;30667;43.614;1.442;2023-04-08T06:02:56;100096.28;;;8.54;100.00
44934;BME280;30667;43.614;1.442;2023-04-08T06:05:21;100094.16;;;8.61;100.00
44934;BME280;30667;43.614;1.442;2023-04-08T06:07:47;100097.97;;;8.70;100.00
44934;BME280;30667;43.614;1.442;2023-04-08T06:10:12;100104.97;;;8.66;100.00
44934;BME280;30667;43.614;1.442;2023-04-08T06:12:38;100107.44;;;8.73;100.00
44934;BME280;30667;43.614;1.442;2023-04-08T06:15:05;100109.63;;;8.81;100.00
44934;BME280;30667;43.614;1.442;2023-04-08T06:17:31;100109.34;;;8.78;100.00
44934;BME280;30667;43.614;1.442;2023-04-08T06:19:56;100103.88;;;8.67;100.00
44934;BME280;30667;43.614;1.442;2023-04-08T06:22:21;100109.34;;;8.78;100.00
44934;BME280;30667;43.614;1.442;2023-04-08T06:24:47;100107.72;;;8.82;100.00
44934;BME280;30667;43.614;1.442;2023-04-08T06:27:12;100111.53;;;8.81;100.00
44934;BME280;30667;43.614;1.442;2023-04-08T06:29:38;100119.34;;;8.82;100.00
44934;BME280;30667;43.614;1.442;2023-04-08T06:32:03;100115.88;;;8.92;100.00
44934;BME280;30667;43.614;1.442;2023-04-08T06:34:30;100125.59;;;8.98;100.00
44934;BME280;30667;43.614;1.442;2023-04-08T06:36:55;100130.72;;;9.00;100.00
44934;BME280;30667;43.614;1.442;2023-04-08T06:39:21;100129.13;;;9.04;100.00
44934;BME280;30667;43.614;1.442;2023-04-08T06:41:47;100126.19;;;9.05;100.00
44934;BME280;30667;43.614;1.442;2023-04-08T06:44:12;100132.41;;;9.11;100.00
44934;BME280;30667;43.614;1.442;2023-04-08T06:46:37;100136.97;;;9.11;100.00
44934;BME280;30667;43.614;1.442;2023-04-08T06:49:03;100145.13;;;9.21;100.00
44934;BME280;30667;43.614;1.442;2023-04-08T06:51:31;100151.06;;;9.23;100.00
44934;BME280;30667;43.614;1.442;2023-04-08T06:53:56;100146.72;;;9.17;100.00
44934;BME280;30667;43.614;1.442;2023-04-08T06:56:22;100144.03;;;9.22;100.00
44934;BME280;30667;43.614;1.442;2023-04-08T06:58:47;100147.84;;;9.26;100.00
44934;BME280;30667;43.614;1.442;2023-04-08T07:01:12;100154.03;;;9.26;100.00
44934;BME280;30667;43.614;1.442;2023-04-08T07:03:40;100147.84;;;9.26;100.00
44934;BME280;30667;43.614;1.442;2023-04-08T07:06:05;100159.19;;;9.33;100.00
44934;BME280;30667;43.614;1.442;2023-04-08T07:08:31;100151.94;;;9.39;100.00
44934;BME280;30667;43.614;1.442;2023-04-08T07:10:56;100152.19;;;9.48;100.00
44934;BME280;30667;43.614;1.442;2023-04-08T07:13:21;100151.94;;;9.49;100.00
44934;BME280;30667;43.614;1.442;2023-04-08T07:15:47;100152.22;;;9.53;100.00
44934;BME280;30667;43.614;1.442;2023-04-08T07:18:13;100155.75;;;9.58;100.00
44934;BME280;30667;43.614;1.442;2023-04-08T07:20:38;100154.94;;;9.68;100.00
44934;BME280;30667;43.614;1.442;2023-04-08T07:23:03;100152.53;;;9.77;99.16
44934;BME280;30667;43.614;1.442;2023-04-08T07:25:29;100163.34;;;9.77;99.75
44934;BME280;30667;43.614;1.442;2023-04-08T07:27:54;100159.56;;;9.83;98.01
44934;BME280;30667;43.614;1.442;2023-04-08T07:30:20;100148.47;;;10.00;98.30
44934;BME280;30667;43.614;1.442;2023-04-08T07:32:46;100160.94;;;10.16;97.58
44934;BME280;30667;43.614;1.442;2023-04-08T07:35:11;100170.66;;;10.28;96.08
44934;BME280;30667;43.614;1.442;2023-04-08T07:37:37;100170.66;;;10.48;91.57
44934;BME280;30667;43.614;1.442;2023-04-08T07:40:02;100169.03;;;10.47;90.20
44934;BME280;30667;43.614;1.442;2023-04-08T07:42:28;100166.31;;;10.47;89.51
44934;BME280;30667;43.614;1.442;2023-04-08T07:44:53;100168.22;;;10.47;89.12
44934;BME280;30667;43.614;1.442;2023-04-08T07:47:19;100174.97;;;10.65;88.69
44934;BME280;30667;43.614;1.442;2023-04-08T07:49:47;100177.34;;;10.77;88.48
44934;BME280;30667;43.614;1.442;2023-04-08T07:52:13;100170.28;;;10.86;86.32
44934;BME280;30667;43.614;1.442;2023-04-08T07:54:38;100177.06;;;10.88;86.51
44934;BME280;30667;43.614;1.442;2023-04-08T07:57:03;100177.31;;;10.92;86.19
44934;BME280;30667;43.614;1.442;2023-04-08T07:59:31;100188.09;;;11.02;85.36
44934;BME280;30667;43.614;1.442;2023-04-08T08:01:56;100185.66;;;11.11;84.54
44934;BME280;30667;43.614;1.442;2023-04-08T08:04:22;100189.94;;;11.17;84.83
44934;BME280;30667;43.614;1.442;2023-04-08T08:06:49;100191.84;;;11.12;83.66
44934;BME280;30667;43.614;1.442;2023-04-08T08:09:15;100188.53;;;11.30;83.43
44934;BME280;30667;43.614;1.442;2023-04-08T08:11:40;100192.63;;;11.22;84.59
44934;BME280;30667;43.614;1.442;2023-04-08T08:14:06;100191.78;;;11.32;82.40
44934;BME280;30667;43.614;1.442;2023-04-08T08:16:32;100192.50;;;11.48;82.16
44934;BME280;30667;43.614;1.442;2023-04-08T08:18:57;100200.84;;;11.62;81.61
44934;BME280;30667;43.614;1.442;2023-04-08T08:21:23;100190.56;;;11.59;81.35
44934;BME280;30667;43.614;1.442;2023-04-08T08:23:51;100189.66;;;11.74;78.64
44934;BME280;30667;43.614;1.442;2023-04-08T08:26:17;100193.19;;;11.74;78.09
44934;BME280;30667;43.614;1.442;2023-04-08T08:28:42;100193.66;;;11.81;76.93
44934;BME280;30667;43.614;1.442;2023-04-08T08:31:07;100193.03;;;12.00;75.30
44934;BME280;30667;43.614;1.442;2023-04-08T08:33:33;100194.56;;;12.11;73.65
44934;BME280;30667;43.614;1.442;2023-04-08T08:35:58;100188.50;;;12.25;73.87
44934;BME280;30667;43.614;1.442;2023-04-08T08:38:24;100188.44;;;12.30;73.81
44934;BME280;30667;43.614;1.442;2023-04-08T08:40:57;100196.22;;;12.42;74.10
44934;BME280;30667;43.614;1.442;2023-04-08T08:43:26;100191.25;;;12.49;71.96
44934;BME280;30667;43.614;1.442;2023-04-08T08:45:53;100187.63;;;12.59;71.97
44934;BME280;30667;43.614;1.442;2023-04-08T08:48:19;100192.75;;;12.65;71.21
44934;BME280;30667;43.614;1.442;2023-04-08T08:50:44;100198.34;;;12.74;71.60
44934;BME280;30667;43.614;1.442;2023-04-08T08:53:10;100204.25;;;12.81;71.19
44934;BME280;30667;43.614;1.442;2023-04-08T08:55:36;100202.63;;;12.80;69.70
44934;BME280;30667;43.614;1.442;2023-04-08T08:58:06;100196.75;;;12.97;71.25
44934;BME280;30667;43.614;1.442;2023-04-08T09:00:36;100206.84;;;13.16;70.04
44934;BME280;30667;43.614;1.442;2023-04-08T09:03:24;100206.84;;;13.16;68.52
44934;BME280;30667;43.614;1.442;2023-04-08T09:08:34;100200.81;;;13.19;67.31
44934;BME280;30667;43.614;1.442;2023-04-08T09:11:17;100200.47;;;13.25;68.53
44934;BME280;30667;43.614;1.442;2023-04-08T09:13:46;100201.75;;;13.33;69.18
44934;BME280;30667;43.614;1.442;2023-04-08T09:16:17;100208.25;;;13.37;67.99
44934;BME280;30667;43.614;1.442;2023-04-08T09:18:46;100206.63;;;13.36;67.53
44934;BME280;30667;43.614;1.442;2023-04-08T09:21:14;100205.25;;;13.39;69.48
44934;BME280;30667;43.614;1.442;2023-04-08T09:23:41;100200.75;;;13.48;68.84
44934;BME280;30667;43.614;1.442;2023-04-08T09:28:34;100203.56;;;13.62;67.31
44934;BME280;30667;43.614;1.442;2023-04-08T09:31:00;100205.25;;;13.77;95.20
44934;BME280;30667;43.614;1.442;2023-04-08T09:33:31;100203.06;;;13.79;72.36
44934;BME280;30667;43.614;1.442;2023-04-08T09:35:56;100200.34;;;13.79;68.51
44934;BME280;30667;43.614;1.442;2023-04-08T09:38:22;100203.34;;;13.77;70.33
44934;BME280;30667;43.614;1.442;2023-04-08T09:40:48;100212.47;;;13.87;69.06
44934;BME280;30667;43.614;1.442;2023-04-08T09:43:18;100205.75;;;13.98;69.01
44934;BME280;30667;43.614;1.442;2023-04-08T09:45:47;100205.50;;;14.13;68.70
44934;BME280;30667;43.614;1.442;2023-04-08T09:48:17;100209.47;;;14.21;64.89
44934;BME280;30667;43.614;1.442;2023-04-08T09:50:49;100210.59;;;14.20;59.97
44934;BME280;30667;43.614;1.442;2023-04-08T09:53:29;100206.44;;;14.23;69.87
44934;BME280;30667;43.614;1.442;2023-04-08T09:55:59;100209.25;;;14.17;70.75
44934;BME280;30667;43.614;1.442;2023-04-08T09:58:35;100197.28;;;14.19;60.58
44934;BME280;30667;43.614;1.442;2023-04-08T10:01:04;100206.00;;;14.34;58.53
44934;BME280;30667;43.614;1.442;2023-04-08T10:06:01;100202.44;;;14.34;63.61
44934;BME280;30667;43.614;1.442;2023-04-08T10:08:27;100203.13;;;14.26;64.58
44934;BME280;30667;43.614;1.442;2023-04-08T10:10:53;100204.41;;;14.47;61.84
44934;BME280;30667;43.614;1.442;2023-04-08T10:13:20;100201.78;;;14.56;58.19
44934;BME280;30667;43.614;1.442;2023-04-08T10:15:46;100198.28;;;14.56;58.03
44934;BME280;30667;43.614;1.442;2023-04-08T10:23:10;100207.75;;;14.58;56.85
44934;BME280;30667;43.614;1.442;2023-04-08T10:25:44;100210.03;;;14.70;56.62
44934;BME280;30667;43.614;1.442;2023-04-08T10:33:20;100208.59;;;14.73;57.49
44934;BME280;30667;43.614;1.442;2023-04-08T10:36:07;100209.53;;;14.68;59.37
44934;BME280;30667;43.614;1.442;2023-04-08T10:38:40;100207.41;;;14.79;57.23
44934;BME280;30667;43.614;1.442;2023-04-08T10:41:07;100207.44;;;14.93;54.50
44934;BME280;30667;43.614;1.442;2023-04-08T10:43:33;100203.59;;;14.94;54.79
44934;BME280;30667;43.614;1.442;2023-04-08T10:45:59;100205.63;;;15.02;54.20
44934;BME280;30667;43.614;1.442;2023-04-08T10:48:24;100201.75;;;15.03;53.33
44934;BME280;30667;43.614;1.442;2023-04-08T10:53:33;100207.41;;;15.20;52.07
44934;BME280;30667;43.614;1.442;2023-04-08T10:56:05;100202.56;;;15.31;52.03
44934;BME280;30667;43.614;1.442;2023-04-08T10:58:31;100206.19;;;15.40;50.67
44934;BME280;30667;43.614;1.442;2023-04-08T11:01:06;100195.50;;;15.30;50.51
44934;BME280;30667;43.614;1.442;2023-04-08T11:03:33;100196.13;;;15.13;51.46
44934;BME280;30667;43.614;1.442;2023-04-08T11:05:59;100201.47;;;15.32;50.42
44934;BME280;30667;43.614;1.442;2023-04-08T11:08:32;100194.06;;;15.47;49.69
44934;BME280;30667;43.614;1.442;2023-04-08T11:11:00;100198.19;;;15.44;49.53
44934;BME280;30667;43.614;1.442;2023-04-08T11:13:26;100196.00;;;15.32;49.54
44934;BME280;30667;43.614;1.442;2023-04-08T11:15:54;100194.38;;;15.31;49.40
44934;BME280;30667;43.614;1.442;2023-04-08T11:18:21;100189.53;;;15.42;49.20
44934;BME280;30667;43.614;1.442;2023-04-08T11:20:50;100189.34;;;15.38;49.24
44934;BME280;30667;43.614;1.442;2023-04-08T11:23:16;100185.44;;;15.67;48.10
44934;BME280;30667;43.614;1.442;2023-04-08T11:25:42;100181.69;;;15.63;47.02
44934;BME280;30667;43.614;1.442;2023-04-08T11:28:09;100183.84;;;15.52;46.43
44934;BME280;30667;43.614;1.442;2023-04-08T11:30:35;100189.59;;;15.51;46.20
44934;BME280;30667;43.614;1.442;2023-04-08T11:33:01;100186.41;;;15.71;45.09
44934;BME280;30667;43.614;1.442;2023-04-08T11:35:30;100175.47;;;15.49;42.88
44934;BME280;30667;43.614;1.442;2023-04-08T11:37:56;100177.22;;;15.44;46.50
44934;BME280;30667;43.614;1.442;2023-04-08T11:40:22;100175.56;;;15.57;44.91
44934;BME280;30667;43.614;1.442;2023-04-08T11:42:49;100168.97;;;15.58;46.03
44934;BME280;30667;43.614;1.442;2023-04-08T11:45:16;100165.75;;;15.56;45.18
44934;BME280;30667;43.614;1.442;2023-04-08T11:47:43;100169.28;;;15.57;45.59
44934;BME280;30667;43.614;1.442;2023-04-08T11:50:09;100170.59;;;15.96;42.70
44934;BME280;30667;43.614;1.442;2023-04-08T11:55:10;100165.09;;;16.10;41.80
44934;BME280;30667;43.614;1.442;2023-04-08T11:57:36;100164.03;;;16.20;42.45
44934;BME280;30667;43.614;1.442;2023-04-08T12:00:05;100163.47;;;16.09;42.34
44934;BME280;30667;43.614;1.442;2023-04-08T12:02:30;100160.50;;;15.96;47.67
44934;BME280;30667;43.614;1.442;2023-04-08T12:04:56;100157.41;;;16.12;42.96
44934;BME280;30667;43.614;1.442;2023-04-08T12:07:21;100154.19;;;16.10;42.92
44934;BME280;30667;43.614;1.442;2023-04-08T12:09:46;100160.25;;;16.07;44.61
44934;BME280;30667;43.614;1.442;2023-04-08T12:12:12;100162.91;;;16.21;42.72
44934;BME280;30667;43.614;1.442;2023-04-08T12:14:37;100161.19;;;16.02;42.82
44934;BME280;30667;43.614;1.442;2023-04-08T12:17:02;100155.31;;;15.72;45.20
44934;BME280;30667;43.614;1.442;2023-04-08T12:19:28;100153.66;;;16.08;40.28
44934;BME280;30667;43.614;1.442;2023-04-08T12:21:53;100147.81;;;16.23;41.57
44934;BME280;30667;43.614;1.442;2023-04-08T12:24:19;100139.88;;;16.36;41.25
44934;BME280;30667;43.614;1.442;2023-04-08T12:26:45;100143.63;;;16.17;41.42
44934;BME280;30667;43.614;1.442;2023-04-08T12:29:10;100153.31;;;16.01;42.12
44934;BME280;30667;43.614;1.442;2023-04-08T12:31:36;100151.56;;;16.05;39.99
44934;BME280;30667;43.614;1.442;2023-04-08T12:34:01;100133.34;;;15.91;45.58
44934;BME280;30667;43.614;1.442;2023-04-08T12:36:26;100144.34;;;16.31;41.38
44934;BME280;30667;43.614;1.442;2023-04-08T12:38:52;100130.94;;;16.52;40.40
44934;BME280;30667;43.614;1.442;2023-04-08T12:41:17;100141.97;;;16.39;38.86
44934;BME280;30667;43.614;1.442;2023-04-08T12:43:43;100143.53;;;16.31;37.96
44934;BME280;30667;43.614;1.442;2023-04-08T12:46:08;100138.94;;;16.17;39.18
44934;BME280;30667;43.614;1.442;2023-04-08T12:48:33;100137.88;;;15.96;42.23
44934;BME280;30667;43.614;1.442;2023-04-08T12:50:59;100134.97;;;15.92;40.04
44934;BME280;30667;43.614;1.442;2023-04-08T12:53:24;100131.97;;;16.03;39.51
44934;BME280;30667;43.614;1.442;2023-04-08T12:55:50;100129.44;;;16.38;32.61
44934;BME280;30667;43.614;1.442;2023-04-08T12:58:16;100127.09;;;16.53;32.41
44934;BME280;30667;43.614;1.442;2023-04-08T13:00:41;100128.09;;;16.66;31.69
44934;BME280;30667;43.614;1.442;2023-04-08T13:03:11;100126.41;;;16.48;32.15
44934;BME280;30667;43.614;1.442;2023-04-08T13:05:37;100128.44;;;16.33;32.31
44934;BME280;30667;43.614;1.442;2023-04-08T13:08:02;100126.50;;;16.65;33.75
44934;BME280;30667;43.614;1.442;2023-04-08T13:10:27;100130.34;;;16.24;37.63
44934;BME280;30667;43.614;1.442;2023-04-08T13:12:53;100131.59;;;16.18;43.69